createdAt,value
2022-08-12T00:00:03.706Z,470
2022-08-12T00:00:13.713Z,470
2022-08-12T00:00:23.728Z,467
2022-08-12T00:00:33.742Z,467
2022-08-12T00:00:43.772Z,466
2022-08-12T00:00:53.774Z,464
2022-08-12T00:01:03.852Z,466
2022-08-12T00:01:18.931Z,466
2022-08-12T00:02:02.883Z,469
2022-08-12T00:02:02.883Z,469
2022-08-12T00:02:03.866Z,469
2022-08-12T00:02:03.955Z,469
2022-08-12T00:02:05.571Z,469
2022-08-12T00:02:13.844Z,469
2022-08-12T00:02:23.892Z,470
2022-08-12T00:02:33.915Z,469
2022-08-12T00:02:43.978Z,468
2022-08-12T00:02:53.985Z,468
2022-08-12T00:03:03.978Z,467
2022-08-12T00:03:14.854Z,465
2022-08-12T00:03:24.645Z,464
2022-08-12T00:03:34.039Z,468
2022-08-12T00:03:43.952Z,466
2022-08-12T00:03:53.964Z,465
2022-08-12T00:04:03.994Z,467
2022-08-12T00:04:14.195Z,469
2022-08-12T00:04:24.025Z,471
2022-08-12T00:04:44.031Z,471
2022-08-12T00:04:54.035Z,471
2022-08-12T00:05:04.057Z,471
2022-08-12T00:05:14.095Z,470
2022-08-12T00:05:24.104Z,470
2022-08-12T00:05:34.085Z,468
2022-08-12T00:05:57.097Z,469
2022-08-12T00:06:04.223Z,468
2022-08-12T00:06:05.217Z,470
2022-08-12T00:06:14.155Z,470
2022-08-12T00:06:24.162Z,468
2022-08-12T00:06:34.170Z,467
2022-08-12T00:06:44.196Z,467
2022-08-12T00:06:54.198Z,467
2022-08-12T00:07:04.218Z,467
2022-08-12T00:07:14.231Z,467
2022-08-12T00:07:24.227Z,467
2022-08-12T00:07:34.257Z,465
2022-08-12T00:07:44.238Z,466
2022-08-12T00:07:54.251Z,467
2022-08-12T00:08:04.310Z,466
2022-08-12T00:08:14.316Z,465
2022-08-12T00:08:28.909Z,467
2022-08-12T00:08:36.809Z,468
2022-08-12T00:08:44.309Z,469
2022-08-12T00:08:54.383Z,468
2022-08-12T00:09:04.355Z,468
2022-08-12T00:09:14.449Z,468
2022-08-12T00:09:26.420Z,468
2022-08-12T00:09:34.486Z,468
2022-08-12T00:09:44.384Z,468
2022-08-12T00:09:54.399Z,468
2022-08-12T00:10:04.414Z,468
2022-08-12T00:10:14.461Z,469
2022-08-12T00:10:24.453Z,470
2022-08-12T00:10:34.535Z,470
2022-08-12T00:10:44.469Z,470
2022-08-12T00:10:54.495Z,468
2022-08-12T00:11:09.768Z,466
2022-08-12T00:11:14.563Z,464
2022-08-12T00:11:24.575Z,462
2022-08-12T00:11:34.549Z,460
2022-08-12T00:11:44.587Z,460
2022-08-12T00:11:54.584Z,460
2022-08-12T00:12:04.577Z,461
2022-08-12T00:12:14.581Z,463
2022-08-12T00:12:24.596Z,463
2022-08-12T00:12:34.662Z,462
2022-08-12T00:12:44.682Z,462
2022-08-12T00:12:54.620Z,463
2022-08-12T00:13:04.649Z,465
2022-08-12T00:13:14.648Z,464
2022-08-12T00:13:24.670Z,463
2022-08-12T00:13:34.728Z,464
2022-08-12T00:13:44.688Z,465
2022-08-12T00:13:54.689Z,467
2022-08-12T00:14:04.703Z,467
2022-08-12T00:14:14.715Z,466
2022-08-12T00:14:24.803Z,465
2022-08-12T00:14:34.742Z,468
2022-08-12T00:14:44.776Z,469
2022-08-12T00:14:54.766Z,470
2022-08-12T00:15:04.772Z,471
2022-08-12T00:15:14.779Z,471
2022-08-12T00:15:24.799Z,473
2022-08-12T00:15:34.805Z,473
2022-08-12T00:15:44.827Z,474
2022-08-12T00:15:54.846Z,473
2022-08-12T00:16:04.846Z,473
2022-08-12T00:16:14.866Z,473
2022-08-12T00:16:24.878Z,475
2022-08-12T00:16:34.954Z,473
2022-08-12T00:16:44.893Z,472
2022-08-12T00:16:54.956Z,472
2022-08-12T00:17:04.968Z,471
2022-08-12T00:17:14.995Z,470
2022-08-12T00:17:24.962Z,471
2022-08-12T00:17:34.952Z,472
2022-08-12T00:17:45.186Z,471
2022-08-12T00:17:55.042Z,473
2022-08-12T00:18:05.027Z,475
2022-08-12T00:18:15.111Z,475
2022-08-12T00:18:25.027Z,475
2022-08-12T00:18:35.018Z,475
2022-08-12T00:18:45.109Z,473
2022-08-12T00:18:55.572Z,473
2022-08-12T00:19:05.091Z,473
2022-08-12T00:19:15.086Z,472
2022-08-12T00:19:25.120Z,473
2022-08-12T00:19:35.122Z,472
2022-08-12T00:19:45.315Z,473
2022-08-12T00:19:55.126Z,472
2022-08-12T00:20:05.148Z,472
2022-08-12T00:20:15.151Z,470
2022-08-12T00:20:25.248Z,471
2022-08-12T00:20:35.211Z,470
2022-08-12T00:20:45.228Z,468
2022-08-12T00:20:55.201Z,468
2022-08-12T00:21:05.233Z,467
2022-08-12T00:21:15.244Z,468
2022-08-12T00:21:25.237Z,466
2022-08-12T00:21:35.941Z,467
2022-08-12T00:21:45.467Z,467
2022-08-12T00:21:55.301Z,467
2022-08-12T00:22:05.370Z,466
2022-08-12T00:22:15.330Z,467
2022-08-12T00:22:25.302Z,467
2022-08-12T00:22:35.324Z,468
2022-08-12T00:22:45.337Z,468
2022-08-12T00:22:59.025Z,467
2022-08-12T00:23:05.355Z,467
2022-08-12T00:23:15.375Z,465
2022-08-12T00:23:25.367Z,466
2022-08-12T00:23:35.387Z,465
2022-08-12T00:23:45.411Z,467
2022-08-12T00:23:55.406Z,467
2022-08-12T00:24:05.420Z,468
2022-08-12T00:24:15.521Z,466
2022-08-12T00:24:25.444Z,466
2022-08-12T00:24:35.457Z,464
2022-08-12T00:24:45.470Z,464
2022-08-12T00:24:55.480Z,463
2022-08-12T00:25:05.558Z,464
2022-08-12T00:25:15.517Z,463
2022-08-12T00:26:00.352Z,464
2022-08-12T00:26:00.442Z,464
2022-08-12T00:26:05.858Z,464
2022-08-12T00:26:20.356Z,463
2022-08-12T00:26:21.496Z,461
2022-08-12T00:26:22.447Z,462
2022-08-12T00:26:25.595Z,462
2022-08-12T00:26:35.602Z,461
2022-08-12T00:26:45.609Z,461
2022-08-12T00:26:55.630Z,462
2022-08-12T00:27:05.639Z,462
2022-08-12T00:27:15.638Z,462
2022-08-12T00:27:27.543Z,463
2022-08-12T00:27:43.920Z,463
2022-08-12T00:27:45.673Z,464
2022-08-12T00:27:55.676Z,465
2022-08-12T00:28:05.692Z,466
2022-08-12T00:28:15.802Z,465
2022-08-12T00:28:25.718Z,464
2022-08-12T00:28:35.724Z,466
2022-08-12T00:28:45.759Z,464
2022-08-12T00:28:55.773Z,466
2022-08-12T00:29:05.758Z,464
2022-08-12T00:29:15.786Z,464
2022-08-12T00:29:25.790Z,464
2022-08-12T00:29:35.806Z,465
2022-08-12T00:29:48.016Z,464
2022-08-12T00:29:55.825Z,464
2022-08-12T00:30:05.838Z,462
2022-08-12T00:30:15.859Z,463
2022-08-12T00:30:25.901Z,463
2022-08-12T00:30:35.899Z,463
2022-08-12T00:30:45.879Z,463
2022-08-12T00:30:55.939Z,464
2022-08-12T00:31:05.914Z,462
2022-08-12T00:31:15.923Z,462
2022-08-12T00:31:25.943Z,464
2022-08-12T00:31:35.961Z,465
2022-08-12T00:31:45.975Z,465
2022-08-12T00:31:55.975Z,464
2022-08-12T00:32:19.488Z,465
2022-08-12T00:32:35.211Z,464
2022-08-12T00:32:36.732Z,464
2022-08-12T00:32:56.499Z,465
2022-08-12T00:32:57.000Z,463
2022-08-12T00:33:06.052Z,464
2022-08-12T00:33:16.072Z,465
2022-08-12T00:33:29.732Z,466
2022-08-12T00:33:51.634Z,464
2022-08-12T00:33:51.642Z,463
2022-08-12T00:33:56.107Z,464
2022-08-12T00:34:06.181Z,465
2022-08-12T00:34:16.134Z,465
2022-08-12T00:34:26.219Z,466
2022-08-12T00:34:36.158Z,465
2022-08-12T00:34:46.163Z,466
2022-08-12T00:34:56.174Z,465
2022-08-12T00:35:08.860Z,467
2022-08-12T00:35:16.194Z,465
2022-08-12T00:35:29.190Z,464
2022-08-12T00:35:36.989Z,466
2022-08-12T00:35:46.235Z,469
2022-08-12T00:35:56.243Z,468
2022-08-12T00:36:06.260Z,468
2022-08-12T00:36:34.966Z,469
2022-08-12T00:36:36.233Z,470
2022-08-12T00:36:36.523Z,469
2022-08-12T00:36:46.310Z,469
2022-08-12T00:36:59.619Z,469
2022-08-12T00:37:07.942Z,470
2022-08-12T00:37:16.327Z,472
2022-08-12T00:37:26.335Z,472
2022-08-12T00:37:36.428Z,473
2022-08-12T00:37:46.365Z,472
2022-08-12T00:37:56.363Z,470
2022-08-12T00:38:06.399Z,469
2022-08-12T00:38:16.396Z,468
2022-08-12T00:38:26.498Z,470
2022-08-12T00:38:36.551Z,471
2022-08-12T00:38:46.492Z,470
2022-08-12T00:38:56.436Z,467
2022-08-12T00:39:06.480Z,466
2022-08-12T00:39:16.607Z,466
2022-08-12T00:39:26.538Z,466
2022-08-12T00:39:36.651Z,468
2022-08-12T00:39:46.610Z,467
2022-08-12T00:39:56.571Z,467
2022-08-12T00:40:11.442Z,469
2022-08-12T00:40:16.556Z,468
2022-08-12T00:40:26.549Z,470
2022-08-12T00:40:36.562Z,469
2022-08-12T00:40:56.630Z,467
2022-08-12T00:41:06.600Z,467
2022-08-12T00:41:16.617Z,470
2022-08-12T00:41:26.706Z,470
2022-08-12T00:41:36.653Z,471
2022-08-12T00:41:46.639Z,471
2022-08-12T00:41:56.658Z,471
2022-08-12T00:42:06.661Z,469
2022-08-12T00:42:16.793Z,468
2022-08-12T00:42:26.818Z,466
2022-08-12T00:42:46.712Z,469
2022-08-12T00:42:56.734Z,474
2022-08-12T00:43:06.755Z,472
2022-08-12T00:43:16.816Z,473
2022-08-12T00:43:26.847Z,476
2022-08-12T00:43:36.784Z,478
2022-08-12T00:43:46.804Z,474
2022-08-12T00:43:56.817Z,473
2022-08-12T00:44:06.898Z,473
2022-08-12T00:44:16.844Z,474
2022-08-12T00:44:26.953Z,473
2022-08-12T00:44:36.875Z,474
2022-08-12T00:44:48.345Z,473
2022-08-12T00:44:56.895Z,474
2022-08-12T00:45:06.883Z,473
2022-08-12T00:45:16.896Z,472
2022-08-12T00:45:26.981Z,471
2022-08-12T00:45:36.932Z,472
2022-08-12T00:45:46.933Z,473
2022-08-12T00:45:56.957Z,474
2022-08-12T00:46:06.956Z,472
2022-08-12T00:46:17.032Z,471
2022-08-12T00:46:27.098Z,471
2022-08-12T00:46:36.997Z,471
2022-08-12T00:46:47.003Z,471
2022-08-12T00:46:57.028Z,471
2022-08-12T00:47:07.037Z,472
2022-08-12T00:47:25.130Z,472
2022-08-12T00:47:27.127Z,473
2022-08-12T00:47:37.101Z,473
2022-08-12T00:47:47.161Z,473
2022-08-12T00:47:57.088Z,473
2022-08-12T00:48:07.099Z,473
2022-08-12T00:48:17.105Z,474
2022-08-12T00:48:27.247Z,474
2022-08-12T00:48:37.312Z,473
2022-08-12T00:48:47.207Z,473
2022-08-12T00:48:57.155Z,471
2022-08-12T00:49:07.180Z,472
2022-08-12T00:49:17.191Z,469
2022-08-12T00:49:27.401Z,470
2022-08-12T00:49:37.212Z,471
2022-08-12T00:49:50.128Z,470
2022-08-12T00:49:57.234Z,470
2022-08-12T00:50:07.317Z,472
2022-08-12T00:50:17.261Z,474
2022-08-12T00:50:27.404Z,472
2022-08-12T00:50:37.296Z,472
2022-08-12T00:50:47.308Z,473
2022-08-12T00:50:57.332Z,474
2022-08-12T00:51:07.324Z,474
2022-08-12T00:51:17.345Z,473
2022-08-12T00:51:27.452Z,473
2022-08-12T00:51:37.439Z,474
2022-08-12T00:51:47.378Z,472
2022-08-12T00:51:57.384Z,472
2022-08-12T00:52:07.397Z,472
2022-08-12T00:52:17.469Z,475
2022-08-12T00:52:27.469Z,475
2022-08-12T00:52:37.438Z,475
2022-08-12T00:52:47.448Z,474
2022-08-12T00:52:57.471Z,473
2022-08-12T00:53:07.466Z,472
2022-08-12T00:53:19.311Z,472
2022-08-12T00:53:27.497Z,471
2022-08-12T00:53:37.558Z,471
2022-08-12T00:53:47.529Z,470
2022-08-12T00:53:57.526Z,471
2022-08-12T00:54:07.533Z,472
2022-08-12T00:54:17.563Z,472
2022-08-12T00:54:27.568Z,472
2022-08-12T00:54:37.566Z,472
2022-08-12T00:54:47.698Z,473
2022-08-12T00:54:57.623Z,473
2022-08-12T00:55:07.614Z,473
2022-08-12T00:55:17.697Z,473
2022-08-12T00:55:27.642Z,472
2022-08-12T00:55:37.779Z,471
2022-08-12T00:55:47.677Z,470
2022-08-12T00:55:57.677Z,470
2022-08-12T00:56:07.686Z,471
2022-08-12T00:56:17.707Z,471
2022-08-12T00:56:27.699Z,470
2022-08-12T00:56:37.713Z,469
2022-08-12T00:56:47.731Z,469
2022-08-12T00:56:57.741Z,468
2022-08-12T00:57:07.747Z,469
2022-08-12T00:57:17.786Z,467
2022-08-12T00:57:27.767Z,468
2022-08-12T00:57:47.845Z,468
2022-08-12T00:57:57.856Z,469
2022-08-12T00:58:07.836Z,468
2022-08-12T00:58:17.917Z,468
2022-08-12T00:58:27.851Z,468
2022-08-12T00:58:37.873Z,466
2022-08-12T00:58:47.892Z,467
2022-08-12T00:58:57.900Z,467
2022-08-12T00:59:07.903Z,466
2022-08-12T00:59:17.939Z,466
2022-08-12T00:59:27.924Z,465
2022-08-12T00:59:37.956Z,465
2022-08-12T00:59:47.972Z,466
2022-08-12T00:59:57.975Z,464
2022-08-12T01:00:07.986Z,464
2022-08-12T01:00:17.996Z,464
2022-08-12T01:00:27.998Z,462
2022-08-12T01:00:38.105Z,462
2022-08-12T01:00:48.021Z,461
2022-08-12T01:00:58.147Z,461
2022-08-12T01:01:08.145Z,462
2022-08-12T01:01:18.091Z,463
2022-08-12T01:01:28.104Z,462
2022-08-12T01:02:02.019Z,460
2022-08-12T01:02:10.783Z,461
2022-08-12T01:02:11.686Z,462
2022-08-12T01:02:12.247Z,461
2022-08-12T01:02:18.226Z,461
2022-08-12T01:02:28.127Z,461
2022-08-12T01:02:38.257Z,464
2022-08-12T01:02:48.250Z,460
2022-08-12T01:02:58.172Z,461
2022-08-12T01:03:08.195Z,461
2022-08-12T01:03:18.202Z,462
2022-08-12T01:03:28.204Z,462
2022-08-12T01:03:38.229Z,462
2022-08-12T01:03:48.235Z,463
2022-08-12T01:03:59.547Z,462
2022-08-12T01:04:08.273Z,462
2022-08-12T01:04:18.263Z,463
2022-08-12T01:04:28.273Z,463
2022-08-12T01:04:38.324Z,462
2022-08-12T01:04:48.305Z,462
2022-08-12T01:04:58.313Z,464
2022-08-12T01:05:08.322Z,465
2022-08-12T01:05:18.380Z,466
2022-08-12T01:05:38.443Z,466
2022-08-12T01:05:48.482Z,466
2022-08-12T01:05:58.384Z,466
2022-08-12T01:06:08.402Z,465
2022-08-12T01:06:18.409Z,465
2022-08-12T01:06:28.508Z,466
2022-08-12T01:06:38.438Z,466
2022-08-12T01:06:51.209Z,465
2022-08-12T01:06:58.522Z,466
2022-08-12T01:07:08.475Z,465
2022-08-12T01:07:18.492Z,467
2022-08-12T01:07:28.489Z,467
2022-08-12T01:07:38.515Z,468
2022-08-12T01:07:48.523Z,467
2022-08-12T01:07:58.524Z,467
2022-08-12T01:08:08.537Z,467
2022-08-12T01:08:18.598Z,466
2022-08-12T01:08:28.558Z,460
2022-08-12T01:08:38.586Z,463
2022-08-12T01:08:48.593Z,459
2022-08-12T01:08:58.613Z,461
2022-08-12T01:09:08.634Z,463
2022-08-12T01:09:18.633Z,462
2022-08-12T01:09:28.627Z,463
2022-08-12T01:09:38.679Z,462
2022-08-12T01:09:48.661Z,463
2022-08-12T01:09:58.708Z,463
2022-08-12T01:10:08.705Z,461
2022-08-12T01:10:18.712Z,460
2022-08-12T01:10:32.867Z,461
2022-08-12T01:10:38.725Z,463
2022-08-12T01:10:58.753Z,459
2022-08-12T01:11:08.759Z,459
2022-08-12T01:11:18.777Z,456
2022-08-12T01:11:28.841Z,456
2022-08-12T01:11:38.846Z,458
2022-08-12T01:11:48.812Z,457
2022-08-12T01:11:58.871Z,457
2022-08-12T01:12:08.839Z,457
2022-08-12T01:12:18.869Z,455
2022-08-12T01:12:28.846Z,455
2022-08-12T01:12:39.092Z,456
2022-08-12T01:12:48.913Z,456
2022-08-12T01:13:18.923Z,456
2022-08-12T01:13:19.396Z,456
2022-08-12T01:13:20.182Z,456
2022-08-12T01:13:28.962Z,458
2022-08-12T01:13:38.950Z,458
2022-08-12T01:13:48.963Z,458
2022-08-12T01:13:59.018Z,459
2022-08-12T01:14:09.026Z,460
2022-08-12T01:14:19.024Z,460
2022-08-12T01:14:29.022Z,461
2022-08-12T01:14:39.055Z,463
2022-08-12T01:14:49.027Z,463
2022-08-12T01:14:59.059Z,463
2022-08-12T01:15:09.127Z,464
2022-08-12T01:15:19.069Z,464
2022-08-12T01:15:29.091Z,464
2022-08-12T01:15:49.118Z,463
2022-08-12T01:15:59.158Z,463
2022-08-12T01:16:09.138Z,463
2022-08-12T01:16:19.178Z,462
2022-08-12T01:16:29.172Z,463
2022-08-12T01:16:39.164Z,461
2022-08-12T01:16:49.177Z,462
2022-08-12T01:16:59.395Z,461
2022-08-12T01:17:09.199Z,463
2022-08-12T01:17:19.291Z,463
2022-08-12T01:17:29.207Z,463
2022-08-12T01:17:39.244Z,465
2022-08-12T01:17:49.257Z,464
2022-08-12T01:17:59.268Z,463
2022-08-12T01:18:09.433Z,463
2022-08-12T01:18:19.381Z,462
2022-08-12T01:18:29.302Z,462
2022-08-12T01:18:39.327Z,462
2022-08-12T01:18:49.324Z,462
2022-08-12T01:18:59.437Z,461
2022-08-12T01:19:09.369Z,458
2022-08-12T01:19:19.373Z,458
2022-08-12T01:19:34.440Z,456
2022-08-12T01:19:49.428Z,456
2022-08-12T01:19:59.412Z,455
2022-08-12T01:20:09.421Z,457
2022-08-12T01:20:19.421Z,459
2022-08-12T01:20:29.416Z,458
2022-08-12T01:20:39.486Z,458
2022-08-12T01:20:49.515Z,459
2022-08-12T01:20:59.516Z,459
2022-08-12T01:21:09.500Z,456
2022-08-12T01:21:19.500Z,458
2022-08-12T01:21:29.521Z,459
2022-08-12T01:21:39.770Z,459
2022-08-12T01:21:49.548Z,460
2022-08-12T01:21:59.755Z,459
2022-08-12T01:22:09.561Z,457
2022-08-12T01:22:19.577Z,456
2022-08-12T01:22:29.719Z,458
2022-08-12T01:22:39.677Z,458
2022-08-12T01:22:49.622Z,458
2022-08-12T01:22:59.637Z,459
2022-08-12T01:23:09.646Z,458
2022-08-12T01:23:19.645Z,457
2022-08-12T01:23:29.654Z,457
2022-08-12T01:23:39.670Z,457
2022-08-12T01:23:59.734Z,455
2022-08-12T01:24:27.907Z,455
2022-08-12T01:24:30.226Z,456
2022-08-12T01:24:31.279Z,453
2022-08-12T01:24:39.763Z,453
2022-08-12T01:24:49.761Z,454
2022-08-12T01:24:59.788Z,456
2022-08-12T01:25:09.819Z,456
2022-08-12T01:25:19.837Z,455
2022-08-12T01:25:29.892Z,455
2022-08-12T01:25:55.545Z,455
2022-08-12T01:25:55.931Z,456
2022-08-12T01:25:59.875Z,456
2022-08-12T01:26:09.843Z,457
2022-08-12T01:26:19.948Z,458
2022-08-12T01:26:29.890Z,457
2022-08-12T01:26:39.874Z,458
2022-08-12T01:26:49.892Z,458
2022-08-12T01:26:59.923Z,458
2022-08-12T01:27:09.930Z,460
2022-08-12T01:27:19.939Z,459
2022-08-12T01:27:29.929Z,458
2022-08-12T01:27:40.072Z,459
2022-08-12T01:27:49.989Z,461
2022-08-12T01:28:00.000Z,461
2022-08-12T01:28:09.988Z,460
2022-08-12T01:28:19.997Z,460
2022-08-12T01:28:29.996Z,460
2022-08-12T01:28:40.010Z,460
2022-08-12T01:28:50.187Z,459
2022-08-12T01:29:00.046Z,459
2022-08-12T01:29:10.054Z,458
2022-08-12T01:29:20.055Z,458
2022-08-12T01:29:33.329Z,457
2022-08-12T01:29:40.133Z,458
2022-08-12T01:29:50.100Z,458
2022-08-12T01:30:00.095Z,457
2022-08-12T01:30:10.125Z,457
2022-08-12T01:30:20.137Z,458
2022-08-12T01:30:30.147Z,458
2022-08-12T01:30:40.168Z,456
2022-08-12T01:30:50.182Z,456
2022-08-12T01:31:00.218Z,458
2022-08-12T01:31:13.310Z,456
2022-08-12T01:31:20.205Z,458
2022-08-12T01:31:30.217Z,458
2022-08-12T01:31:40.222Z,458
2022-08-12T01:31:50.271Z,458
2022-08-12T01:32:00.263Z,458
2022-08-12T01:32:10.261Z,457
2022-08-12T01:32:20.268Z,457
2022-08-12T01:32:30.351Z,457
2022-08-12T01:32:40.463Z,458
2022-08-12T01:32:50.397Z,458
2022-08-12T01:33:00.311Z,457
2022-08-12T01:33:10.407Z,457
2022-08-12T01:33:20.349Z,457
2022-08-12T01:33:30.340Z,456
2022-08-12T01:33:40.469Z,456
2022-08-12T01:33:50.428Z,459
2022-08-12T01:34:00.386Z,459
2022-08-12T01:34:28.373Z,456
2022-08-12T01:34:35.888Z,458
2022-08-12T01:34:36.907Z,456
2022-08-12T01:34:40.501Z,455
2022-08-12T01:34:50.447Z,456
2022-08-12T01:35:00.448Z,456
2022-08-12T01:35:10.463Z,455
2022-08-12T01:35:20.478Z,456
2022-08-12T01:35:30.490Z,455
2022-08-12T01:35:40.498Z,454
2022-08-12T01:35:57.813Z,454
2022-08-12T01:36:08.191Z,453
2022-08-12T01:36:10.520Z,455
2022-08-12T01:36:20.632Z,455
2022-08-12T01:36:30.664Z,458
2022-08-12T01:36:40.591Z,459
2022-08-12T01:36:50.586Z,461
2022-08-12T01:37:00.680Z,460
2022-08-12T01:37:10.605Z,461
2022-08-12T01:37:20.637Z,461
2022-08-12T01:37:30.618Z,461
2022-08-12T01:37:40.655Z,461
2022-08-12T01:37:50.646Z,461
2022-08-12T01:38:00.659Z,462
2022-08-12T01:38:10.662Z,461
2022-08-12T01:38:20.690Z,459
2022-08-12T01:38:30.688Z,457
2022-08-12T01:38:40.697Z,457
2022-08-12T01:39:00.784Z,458
2022-08-12T01:39:10.806Z,459
2022-08-12T01:39:20.802Z,458
2022-08-12T01:39:30.812Z,458
2022-08-12T01:40:33.409Z,460
2022-08-12T01:40:34.371Z,460
2022-08-12T01:40:34.776Z,461
2022-08-12T01:40:35.212Z,460
2022-08-12T01:40:35.259Z,462
2022-08-12T01:40:45.003Z,460
2022-08-12T01:40:50.925Z,460
2022-08-12T01:41:00.974Z,460
2022-08-12T01:41:10.882Z,460
2022-08-12T01:41:20.879Z,461
2022-08-12T01:41:30.904Z,458
2022-08-12T01:41:40.937Z,458
2022-08-12T01:41:53.629Z,457
2022-08-12T01:42:00.940Z,458
2022-08-12T01:42:10.941Z,457
2022-08-12T01:42:20.997Z,456
2022-08-12T01:42:31.067Z,459
2022-08-12T01:42:41.165Z,460
2022-08-12T01:43:01.015Z,458
2022-08-12T01:43:11.020Z,458
2022-08-12T01:43:21.045Z,457
2022-08-12T01:43:31.130Z,456
2022-08-12T01:43:41.059Z,455
2022-08-12T01:43:51.115Z,457
2022-08-12T01:44:01.094Z,457
2022-08-12T01:44:11.087Z,458
2022-08-12T01:44:21.112Z,456
2022-08-12T01:44:31.120Z,458
2022-08-12T01:44:41.146Z,459
2022-08-12T01:44:51.148Z,460
2022-08-12T01:45:01.160Z,459
2022-08-12T01:45:11.265Z,461
2022-08-12T01:45:21.184Z,460
2022-08-12T01:45:40.557Z,459
2022-08-12T01:45:43.446Z,460
2022-08-12T01:45:55.713Z,462
2022-08-12T01:46:01.209Z,460
2022-08-12T01:46:11.274Z,460
2022-08-12T01:46:21.233Z,460
2022-08-12T01:46:31.310Z,459
2022-08-12T01:46:41.272Z,459
2022-08-12T01:46:51.283Z,458
2022-08-12T01:47:01.354Z,459
2022-08-12T01:47:11.390Z,460
2022-08-12T01:47:21.316Z,461
2022-08-12T01:47:31.325Z,460
2022-08-12T01:47:41.344Z,461
2022-08-12T01:47:51.348Z,458
2022-08-12T01:48:01.384Z,459
2022-08-12T01:48:11.375Z,459
2022-08-12T01:48:21.372Z,460
2022-08-12T01:48:31.459Z,460
2022-08-12T01:48:41.494Z,459
2022-08-12T01:48:51.422Z,457
2022-08-12T01:49:01.421Z,457
2022-08-12T01:49:11.448Z,457
2022-08-12T01:49:21.796Z,457
2022-08-12T01:49:31.472Z,456
2022-08-12T01:49:41.488Z,457
2022-08-12T01:50:01.502Z,457
2022-08-12T01:50:11.512Z,457
2022-08-12T01:50:21.533Z,459
2022-08-12T01:50:31.544Z,456
2022-08-12T01:50:43.144Z,457
2022-08-12T01:50:51.571Z,457
2022-08-12T01:51:04.592Z,456
2022-08-12T01:51:11.576Z,455
2022-08-12T01:52:14.620Z,456
2022-08-12T01:52:15.255Z,455
2022-08-12T01:52:20.233Z,455
2022-08-12T01:52:20.797Z,456
2022-08-12T01:52:21.246Z,455
2022-08-12T01:52:21.590Z,456
2022-08-12T01:52:22.741Z,454
2022-08-12T01:52:31.665Z,455
2022-08-12T01:52:42.059Z,455
2022-08-12T01:52:51.687Z,454
2022-08-12T01:53:01.718Z,454
2022-08-12T01:53:11.729Z,453
2022-08-12T01:53:21.738Z,453
2022-08-12T01:53:31.807Z,453
2022-08-12T01:53:50.433Z,452
2022-08-12T01:53:51.768Z,453
2022-08-12T01:54:01.769Z,453
2022-08-12T01:54:11.783Z,453
2022-08-12T01:54:21.799Z,454
2022-08-12T01:54:31.815Z,455
2022-08-12T01:54:41.829Z,455
2022-08-12T01:54:51.832Z,455
2022-08-12T01:55:01.858Z,455
2022-08-12T01:55:11.859Z,454
2022-08-12T01:55:21.879Z,456
2022-08-12T01:55:31.879Z,458
2022-08-12T01:55:41.936Z,456
2022-08-12T01:55:51.949Z,455
2022-08-12T01:56:02.021Z,455
2022-08-12T01:56:11.955Z,455
2022-08-12T01:56:21.983Z,455
2022-08-12T01:56:31.969Z,457
2022-08-12T01:56:41.965Z,456
2022-08-12T01:56:51.993Z,457
2022-08-12T01:57:01.998Z,457
2022-08-12T01:57:12.022Z,456
2022-08-12T01:57:57.074Z,455
2022-08-12T01:57:57.619Z,452
2022-08-12T01:57:59.033Z,455
2022-08-12T01:57:59.617Z,458
2022-08-12T01:58:02.063Z,453
2022-08-12T01:58:12.073Z,453
2022-08-12T01:58:22.091Z,452
2022-08-12T01:58:32.115Z,451
2022-08-12T01:58:42.172Z,450
2022-08-12T01:58:52.211Z,449
2022-08-12T01:59:02.244Z,448
2022-08-12T01:59:12.543Z,449
2022-08-12T01:59:22.165Z,448
2022-08-12T01:59:32.247Z,451
2022-08-12T01:59:42.189Z,451
2022-08-12T01:59:52.202Z,453
2022-08-12T02:00:02.207Z,455
2022-08-12T02:00:12.258Z,455
2022-08-12T02:00:22.237Z,458
2022-08-12T02:00:35.968Z,456
2022-08-12T02:00:43.556Z,457
2022-08-12T02:00:55.410Z,456
2022-08-12T02:01:02.326Z,458
2022-08-12T02:01:12.343Z,459
2022-08-12T02:01:22.426Z,457
2022-08-12T02:01:32.394Z,457
2022-08-12T02:01:42.471Z,458
2022-08-12T02:01:52.416Z,458
2022-08-12T02:02:02.350Z,457
2022-08-12T02:02:12.360Z,458
2022-08-12T02:02:22.385Z,457
2022-08-12T02:02:32.473Z,457
2022-08-12T02:02:42.424Z,459
2022-08-12T02:02:52.415Z,458
2022-08-12T02:03:02.423Z,459
2022-08-12T02:03:12.431Z,460
2022-08-12T02:03:22.447Z,458
2022-08-12T02:03:32.461Z,457
2022-08-12T02:03:42.465Z,456
2022-08-12T02:03:52.550Z,455
2022-08-12T02:04:02.502Z,456
2022-08-12T02:04:12.517Z,457
2022-08-12T02:04:22.528Z,457
2022-08-12T02:04:32.535Z,459
2022-08-12T02:04:42.566Z,459
2022-08-12T02:04:52.565Z,461
2022-08-12T02:05:02.571Z,460
2022-08-12T02:05:12.584Z,457
2022-08-12T02:05:22.617Z,458
2022-08-12T02:05:33.035Z,458
2022-08-12T02:05:42.631Z,458
2022-08-12T02:05:52.651Z,455
2022-08-12T02:06:02.653Z,455
2022-08-12T02:06:12.734Z,454
2022-08-12T02:06:22.675Z,454
2022-08-12T02:06:32.682Z,454
2022-08-12T02:06:42.717Z,452
2022-08-12T02:06:52.708Z,453
2022-08-12T02:07:02.808Z,454
2022-08-12T02:07:12.752Z,453
2022-08-12T02:07:22.745Z,454
2022-08-12T02:07:32.812Z,452
2022-08-12T02:07:42.768Z,451
2022-08-12T02:07:52.781Z,451
2022-08-12T02:08:02.793Z,452
2022-08-12T02:08:12.818Z,453
2022-08-12T02:08:22.888Z,454
2022-08-12T02:08:32.829Z,455
2022-08-12T02:08:42.854Z,456
2022-08-12T02:08:52.867Z,456
2022-08-12T02:09:02.882Z,457
2022-08-12T02:09:12.976Z,456
2022-08-12T02:09:22.900Z,457
2022-08-12T02:09:32.904Z,457
2022-08-12T02:09:42.922Z,456
2022-08-12T02:09:52.928Z,457
2022-08-12T02:10:02.936Z,456
2022-08-12T02:10:49.232Z,457
2022-08-12T02:10:49.893Z,456
2022-08-12T02:10:50.085Z,456
2022-08-12T02:10:50.671Z,457
2022-08-12T02:10:52.990Z,456
2022-08-12T02:11:03.029Z,456
2022-08-12T02:11:13.023Z,456
2022-08-12T02:11:23.032Z,456
2022-08-12T02:11:33.075Z,457
2022-08-12T02:11:43.080Z,458
2022-08-12T02:11:53.811Z,457
2022-08-12T02:12:03.096Z,458
2022-08-12T02:12:13.096Z,458
2022-08-12T02:12:27.691Z,459
2022-08-12T02:12:33.152Z,460
2022-08-12T02:12:43.162Z,460
2022-08-12T02:12:53.145Z,458
2022-08-12T02:13:03.154Z,457
2022-08-12T02:13:13.154Z,457
2022-08-12T02:13:41.919Z,459
2022-08-12T02:13:48.379Z,459
2022-08-12T02:13:48.832Z,460
2022-08-12T02:13:53.190Z,460
2022-08-12T02:14:03.221Z,460
2022-08-12T02:14:13.224Z,461
2022-08-12T02:14:23.256Z,459
2022-08-12T02:14:33.258Z,461
2022-08-12T02:14:43.301Z,458
2022-08-12T02:14:53.344Z,458
2022-08-12T02:15:03.294Z,459
2022-08-12T02:15:13.406Z,457
2022-08-12T02:15:23.308Z,456
2022-08-12T02:15:33.411Z,456
2022-08-12T02:15:43.334Z,456
2022-08-12T02:15:53.388Z,455
2022-08-12T02:16:03.370Z,456
2022-08-12T02:16:13.433Z,455
2022-08-12T02:16:23.395Z,455
2022-08-12T02:16:33.494Z,456
2022-08-12T02:16:43.471Z,454
2022-08-12T02:16:53.464Z,454
2022-08-12T02:17:03.516Z,453
2022-08-12T02:17:13.455Z,453
2022-08-12T02:17:54.598Z,458
2022-08-12T02:17:54.653Z,455
2022-08-12T02:17:55.018Z,458
2022-08-12T02:17:55.069Z,456
2022-08-12T02:18:03.513Z,458
2022-08-12T02:18:13.520Z,458
2022-08-12T02:18:23.530Z,459
2022-08-12T02:18:33.603Z,460
2022-08-12T02:18:43.557Z,461
2022-08-12T02:18:53.581Z,459
2022-08-12T02:19:03.588Z,459
2022-08-12T02:19:23.157Z,460
2022-08-12T02:19:23.609Z,459
2022-08-12T02:19:33.601Z,459
2022-08-12T02:19:43.653Z,458
2022-08-12T02:19:53.709Z,459
2022-08-12T02:20:03.735Z,459
2022-08-12T02:20:13.661Z,459